createdAt,value
2022-12-20T00:01:57.114Z,16.83
2022-12-20T00:04:27.699Z,15.77
2022-12-20T00:06:57.033Z,16.33
2022-12-20T00:09:30.155Z,14.60
2022-12-20T00:11:59.045Z,16.73
2022-12-20T00:14:28.210Z,16.23
2022-12-20T00:17:00.554Z,14.53
2022-12-20T00:19:32.289Z,12.27
2022-12-20T00:22:00.572Z,20.07
2022-12-20T00:24:31.058Z,12.70
2022-12-20T00:26:59.450Z,15.10
2022-12-20T00:29:28.695Z,14.80
2022-12-20T00:31:57.337Z,14.20
2022-12-20T00:34:26.517Z,16.90
2022-12-20T00:36:57.258Z,14.10
2022-12-20T00:39:26.468Z,16.57
2022-12-20T00:41:56.008Z,13.93
2022-12-20T00:44:24.656Z,14.97
2022-12-20T00:46:54.188Z,15.40
2022-12-20T00:49:23.407Z,20.10
2022-12-20T00:51:52.749Z,16.67
2022-12-20T00:54:23.214Z,14.40
2022-12-20T00:56:53.236Z,13.87
2022-12-20T00:59:22.293Z,12.93
2022-12-20T01:01:51.715Z,13.63
2022-12-20T01:04:21.203Z,12.47
2022-12-20T01:06:50.281Z,13.03
2022-12-20T01:09:20.285Z,10.40
2022-12-20T01:11:51.472Z,10.93
2022-12-20T01:14:20.307Z,8.50
2022-12-20T01:16:50.573Z,8.60
2022-12-20T01:19:20.993Z,10.27
2022-12-20T01:21:49.599Z,6.97
2022-12-20T01:24:21.101Z,6.23
2022-12-20T01:26:52.504Z,8.57
2022-12-20T01:29:21.897Z,6.63
2022-12-20T01:31:54.215Z,6.17
2022-12-20T01:34:23.515Z,5.73
2022-12-20T01:36:52.894Z,6.93
2022-12-20T01:39:30.544Z,6.27
2022-12-20T01:42:02.455Z,6.80
2022-12-20T01:45:01.657Z,6.10
2022-12-20T01:47:34.154Z,4.97
2022-12-20T01:50:06.865Z,4.43
2022-12-20T01:52:38.879Z,5.10
2022-12-20T01:55:16.969Z,4.77
2022-12-20T01:57:51.802Z,4.07
2022-12-20T02:00:21.755Z,4.33
2022-12-20T02:02:52.902Z,4.03
2022-12-20T02:05:24.680Z,3.30
2022-12-20T02:07:56.076Z,4.50
2022-12-20T02:10:31.013Z,3.67
2022-12-20T02:13:17.296Z,3.87
2022-12-20T02:15:55.607Z,3.33
2022-12-20T02:18:27.816Z,4.73
2022-12-20T02:21:24.477Z,2.93
2022-12-20T02:24:28.845Z,2.50
2022-12-20T02:27:32.446Z,2.97
2022-12-20T02:30:18.137Z,3.17
2022-12-20T02:32:53.750Z,3.27
2022-12-20T02:35:27.437Z,4.57
2022-12-20T02:37:57.820Z,3.30
2022-12-20T02:40:30.976Z,4.10
2022-12-20T02:43:05.047Z,2.80
2022-12-20T02:45:40.713Z,5.23
2022-12-20T02:48:14.472Z,2.90
2022-12-20T02:50:49.598Z,3.23
2022-12-20T02:53:19.418Z,2.90
2022-12-20T02:55:53.037Z,3.33
2022-12-20T02:58:30.614Z,3.33
2022-12-20T03:01:05.629Z,2.90
2022-12-20T03:03:35.203Z,2.67
2022-12-20T03:06:05.448Z,2.57
2022-12-20T03:08:37.001Z,3.43
2022-12-20T03:11:06.082Z,3.63
2022-12-20T03:13:35.216Z,2.83
2022-12-20T03:16:06.278Z,3.20
2022-12-20T03:18:36.204Z,2.70
2022-12-20T03:21:06.128Z,2.87
2022-12-20T03:23:35.467Z,3.43
2022-12-20T03:26:04.587Z,5.03
2022-12-20T03:28:34.896Z,2.43
2022-12-20T03:31:07.234Z,3.30
2022-12-20T03:33:37.167Z,2.43
2022-12-20T03:36:06.134Z,2.17
2022-12-20T03:38:35.104Z,2.97
2022-12-20T03:41:03.935Z,3.53
2022-12-20T03:43:34.042Z,3.30
2022-12-20T03:46:03.239Z,3.63
2022-12-20T03:48:35.209Z,3.47
2022-12-20T03:51:05.091Z,2.30
2022-12-20T03:53:35.170Z,2.27
2022-12-20T03:56:04.339Z,3.00
2022-12-20T03:58:34.021Z,2.10
2022-12-20T04:01:03.725Z,3.20
2022-12-20T04:03:35.405Z,3.90
2022-12-20T04:06:04.114Z,3.63
2022-12-20T04:08:32.863Z,2.70
2022-12-20T04:11:20.049Z,4.03
2022-12-20T04:13:50.202Z,2.63
2022-12-20T04:16:21.554Z,1.77
2022-12-20T04:18:54.303Z,2.73
2022-12-20T04:21:25.172Z,3.40
2022-12-20T04:23:53.891Z,3.00
2022-12-20T04:26:22.860Z,4.17
2022-12-20T04:28:53.023Z,3.00
2022-12-20T04:31:24.439Z,3.13
2022-12-20T04:33:55.377Z,5.10
2022-12-20T04:36:24.372Z,4.00
2022-12-20T04:38:54.172Z,3.37
2022-12-20T04:41:27.706Z,2.83
2022-12-20T04:43:59.471Z,2.67
2022-12-20T04:46:28.981Z,3.80
2022-12-20T04:49:03.910Z,7.07
2022-12-20T04:54:28.285Z,2.83
2022-12-20T04:57:03.853Z,2.30
2022-12-20T04:59:44.085Z,3.00
2022-12-20T05:02:12.979Z,3.17
2022-12-20T05:05:00.100Z,3.67
2022-12-20T05:13:09.608Z,2.63
2022-12-20T05:15:46.558Z,2.97
2022-12-20T05:18:27.213Z,2.33
2022-12-20T05:21:43.456Z,2.77
2022-12-20T05:31:40.847Z,3.73
2022-12-20T05:34:23.916Z,2.60
2022-12-20T05:36:57.962Z,3.53
2022-12-20T05:39:29.557Z,3.57
2022-12-20T05:42:00.706Z,8.27
2022-12-20T05:44:45.590Z,5.07
2022-12-20T05:47:34.032Z,3.30
2022-12-20T05:53:11.866Z,3.20
2022-12-20T05:55:41.678Z,4.63
2022-12-20T05:58:13.472Z,4.17
2022-12-20T06:00:42.039Z,3.90
2022-12-20T06:03:14.218Z,3.90
2022-12-20T06:05:44.393Z,3.97
2022-12-20T06:08:14.953Z,5.43
2022-12-20T06:10:44.024Z,3.00
2022-12-20T06:13:13.249Z,2.73
2022-12-20T06:15:42.037Z,4.73
2022-12-20T06:18:11.694Z,4.03
2022-12-20T06:20:40.762Z,4.40
2022-12-20T06:23:09.864Z,4.10
2022-12-20T06:25:40.272Z,5.83
2022-12-20T06:28:08.901Z,3.33
2022-12-20T06:30:37.588Z,4.03
2022-12-20T06:33:06.607Z,5.23
2022-12-20T06:35:41.274Z,4.60
2022-12-20T06:38:10.936Z,3.83
2022-12-20T06:40:42.784Z,6.50
2022-12-20T06:43:11.269Z,4.27
2022-12-20T06:45:42.196Z,4.87
2022-12-20T06:48:12.931Z,3.83
2022-12-20T06:50:42.667Z,4.47
2022-12-20T06:53:11.131Z,4.47
2022-12-20T06:55:42.161Z,5.33
2022-12-20T06:58:10.150Z,4.27
2022-12-20T07:00:38.806Z,4.27
2022-12-20T07:03:07.429Z,4.40
2022-12-20T07:05:36.416Z,4.50
2022-12-20T07:08:05.854Z,3.63
2022-12-20T07:10:36.109Z,4.33
2022-12-20T07:13:05.750Z,3.93
2022-12-20T07:15:34.232Z,7.00
2022-12-20T07:18:03.313Z,6.50
2022-12-20T07:20:31.981Z,5.27
2022-12-20T07:23:01.012Z,4.97
2022-12-20T07:25:29.462Z,4.87
2022-12-20T07:27:58.508Z,5.90
2022-12-20T07:30:28.786Z,5.93
2022-12-20T07:32:57.201Z,5.67
2022-12-20T07:35:26.801Z,5.07
2022-12-20T07:37:55.291Z,6.07
2022-12-20T07:40:24.311Z,4.77
2022-12-20T07:42:53.044Z,4.27
2022-12-20T07:45:21.418Z,7.67
2022-12-20T07:47:51.327Z,4.23
2022-12-20T07:50:20.119Z,3.90
2022-12-20T07:52:49.636Z,4.77
2022-12-20T07:55:18.864Z,8.60
2022-12-20T07:57:50.784Z,7.57
2022-12-20T08:00:20.236Z,4.40
2022-12-20T08:02:55.371Z,6.67
2022-12-20T08:05:24.828Z,8.13
2022-12-20T08:07:59.341Z,7.73
2022-12-20T08:10:30.822Z,5.57
2022-12-20T08:13:00.570Z,7.43
2022-12-20T08:15:30.654Z,8.57
2022-12-20T08:18:00.701Z,10.77
2022-12-20T08:20:29.406Z,6.60
2022-12-20T08:22:57.898Z,9.70
2022-12-20T08:25:27.489Z,6.80
2022-12-20T08:27:56.578Z,14.80
2022-12-20T08:30:24.867Z,9.40
2022-12-20T08:32:53.451Z,11.27
2022-12-20T08:35:23.696Z,5.20
2022-12-20T08:37:53.258Z,7.20
2022-12-20T08:40:22.199Z,6.57
2022-12-20T08:42:50.476Z,6.43
2022-12-20T08:45:19.402Z,6.07
2022-12-20T08:47:47.895Z,6.57
2022-12-20T08:50:16.694Z,7.47
2022-12-20T08:52:47.795Z,6.93
2022-12-20T08:55:16.088Z,4.27
2022-12-20T08:57:44.184Z,5.23
2022-12-20T09:00:13.648Z,5.67
2022-12-20T09:02:42.973Z,5.93
2022-12-20T09:05:11.700Z,5.03
2022-12-20T09:07:39.836Z,6.23
2022-12-20T09:10:11.409Z,6.27
2022-12-20T09:12:40.179Z,6.63
2022-12-20T09:15:09.916Z,5.57
2022-12-20T09:17:38.917Z,8.60
2022-12-20T09:20:08.604Z,7.70
2022-12-20T09:22:40.146Z,6.77
2022-12-20T09:25:10.861Z,10.30
2022-12-20T09:27:40.106Z,6.27
2022-12-20T09:30:10.403Z,7.10
2022-12-20T09:32:38.769Z,9.07
2022-12-20T09:35:07.567Z,11.43
2022-12-20T09:37:35.994Z,7.30
2022-12-20T09:40:04.653Z,7.87
2022-12-20T09:42:34.400Z,6.00
2022-12-20T09:45:07.396Z,7.13
2022-12-20T09:47:37.369Z,7.50
2022-12-20T09:50:09.010Z,8.57
2022-12-20T09:52:52.057Z,11.13
2022-12-20T09:55:28.098Z,7.03
2022-12-20T09:58:16.697Z,8.50
2022-12-20T10:00:53.505Z,11.50
2022-12-20T10:03:24.929Z,9.10
2022-12-20T10:05:55.709Z,9.70
2022-12-20T10:08:41.802Z,9.83
2022-12-20T10:11:15.050Z,11.73
2022-12-20T10:14:00.406Z,10.13
2022-12-20T10:16:40.355Z,8.93
2022-12-20T10:19:23.364Z,12.83
2022-12-20T10:22:01.524Z,9.73
2022-12-20T10:24:32.558Z,10.20
2022-12-20T10:27:12.817Z,8.90
2022-12-20T10:29:57.496Z,9.07
2022-12-20T10:32:30.367Z,9.00
2022-12-20T10:38:07.985Z,6.47
2022-12-20T10:41:19.569Z,7.90
2022-12-20T10:43:29.510Z,8.33
2022-12-20T10:46:02.564Z,7.73
2022-12-20T10:48:34.542Z,6.10
2022-12-20T10:51:09.440Z,8.97
2022-12-20T10:53:55.015Z,7.80
2022-12-20T10:56:25.081Z,6.07
2022-12-20T10:58:57.748Z,5.90
2022-12-20T11:01:32.593Z,7.30
2022-12-20T11:04:05.796Z,8.07
2022-12-20T11:06:45.730Z,5.63
2022-12-20T11:09:26.396Z,5.47
2022-12-20T11:12:08.503Z,7.43
2022-12-20T11:14:48.750Z,6.40
2022-12-20T11:18:11.529Z,7.47
2022-12-20T11:21:21.620Z,8.10
2022-12-20T11:24:55.128Z,8.73
2022-12-20T11:31:18.438Z,6.50
2022-12-20T11:34:31.096Z,9.00
2022-12-20T11:37:35.804Z,8.13
2022-12-20T11:40:44.797Z,9.57
2022-12-20T11:44:23.436Z,6.23
2022-12-20T11:47:12.950Z,5.87
2022-12-20T11:50:35.952Z,7.07
2022-12-20T11:53:53.780Z,7.17
2022-12-20T11:56:57.485Z,9.30
2022-12-20T12:03:16.816Z,9.70
2022-12-20T12:10:22.478Z,11.80
2022-12-20T12:16:06.728Z,7.27
2022-12-20T12:39:47.078Z,10.17
2022-12-20T12:42:57.393Z,6.67
2022-12-20T12:45:39.333Z,6.53
2022-12-20T12:48:19.299Z,10.27
2022-12-20T12:50:52.957Z,5.77
2022-12-20T12:53:26.116Z,7.57
2022-12-20T12:56:19.225Z,6.90
2022-12-20T13:04:33.470Z,8.13
2022-12-20T13:07:05.790Z,6.07
2022-12-20T13:16:09.794Z,6.30
2022-12-20T13:31:38.574Z,9.00
2022-12-20T14:10:18.271Z,6.87
2022-12-20T14:16:43.919Z,7.87
2022-12-20T14:19:17.123Z,10.70
2022-12-20T14:21:51.764Z,9.53
2022-12-20T14:34:52.886Z,9.97
2022-12-20T14:39:49.426Z,10.07
2022-12-20T14:45:47.557Z,10.80
2022-12-20T14:49:16.621Z,8.63
2022-12-20T14:59:53.600Z,9.93
2022-12-20T15:28:27.124Z,12.53
2022-12-20T15:31:20.396Z,10.43
2022-12-20T15:34:03.186Z,9.93
2022-12-20T15:36:51.985Z,12.33
2022-12-20T15:39:58.280Z,12.73
2022-12-20T15:42:38.040Z,12.57
2022-12-20T15:45:12.656Z,10.70
2022-12-20T15:48:12.041Z,11.20
2022-12-20T15:51:15.303Z,12.27
2022-12-20T15:54:25.854Z,12.33
2022-12-20T15:57:03.441Z,11.97
2022-12-20T16:03:27.761Z,13.80
2022-12-20T16:17:31.368Z,15.10
2022-12-20T16:20:13.060Z,13.07
2022-12-20T16:22:53.386Z,12.27
2022-12-20T16:25:43.284Z,11.37
2022-12-20T16:28:23.889Z,12.60
2022-12-20T16:31:06.652Z,14.17
2022-12-20T16:33:49.816Z,12.50
2022-12-20T16:36:21.815Z,9.90
2022-12-20T16:38:57.852Z,11.33
2022-12-20T16:41:31.352Z,14.27
2022-12-20T16:44:07.668Z,13.10
2022-12-20T16:46:39.092Z,12.43
2022-12-20T16:49:20.377Z,14.37
2022-12-20T16:54:46.245Z,9.43
2022-12-20T17:14:01.583Z,12.63
2022-12-20T17:16:31.909Z,13.30
2022-12-20T17:19:02.009Z,12.07
2022-12-20T17:24:24.999Z,14.83
2022-12-20T17:26:56.255Z,14.10
2022-12-20T17:29:27.375Z,12.17
2022-12-20T17:31:57.696Z,14.10
2022-12-20T17:34:28.744Z,18.63
2022-12-20T17:36:58.538Z,18.20
2022-12-20T17:39:30.470Z,15.97
2022-12-20T17:42:15.918Z,15.67
2022-12-20T17:44:46.256Z,15.57
2022-12-20T17:47:17.437Z,18.50
2022-12-20T17:49:49.237Z,15.67
2022-12-20T17:52:18.676Z,18.13
2022-12-20T17:54:50.195Z,16.10
2022-12-20T17:57:27.577Z,16.97
2022-12-20T18:00:00.904Z,13.63
2022-12-20T18:02:31.794Z,16.93
2022-12-20T18:05:03.763Z,15.40
2022-12-20T18:07:43.711Z,18.47
2022-12-20T18:10:29.732Z,15.93
2022-12-20T18:12:59.046Z,16.90
2022-12-20T18:15:29.454Z,18.43
2022-12-20T18:18:21.166Z,16.17
2022-12-20T18:20:49.926Z,19.30
2022-12-20T18:23:18.679Z,13.33
2022-12-20T18:25:47.741Z,16.53
2022-12-20T18:28:18.493Z,14.63
2022-12-20T18:31:04.984Z,16.03
2022-12-20T18:33:36.249Z,15.07
2022-12-20T18:36:05.712Z,17.43
2022-12-20T18:38:52.732Z,14.70
2022-12-20T18:41:23.977Z,17.57
2022-12-20T18:43:53.303Z,16.00
2022-12-20T18:46:24.078Z,16.30
2022-12-20T18:48:57.198Z,18.80
2022-12-20T18:51:43.987Z,16.43
2022-12-20T18:54:28.385Z,16.90
2022-12-20T19:02:58.948Z,17.30
2022-12-20T19:05:33.266Z,21.17
2022-12-20T19:08:01.658Z,18.10
2022-12-20T19:10:34.134Z,20.93
2022-12-20T19:13:06.026Z,21.57
2022-12-20T19:15:34.623Z,21.53
2022-12-20T19:18:03.354Z,21.77
2022-12-20T19:23:28.231Z,20.23
2022-12-20T19:26:04.576Z,20.73
2022-12-20T19:28:34.759Z,20.57
2022-12-20T19:31:08.400Z,19.27
2022-12-20T19:33:45.808Z,21.50
2022-12-20T19:36:21.061Z,20.97
2022-12-20T19:38:51.566Z,19.53
2022-12-20T19:44:42.716Z,19.70
2022-12-20T19:47:12.042Z,26.63
2022-12-20T19:49:45.344Z,26.77
2022-12-20T19:52:23.283Z,23.43
2022-12-20T19:54:57.010Z,24.53
2022-12-20T20:00:20.881Z,21.57
2022-12-20T20:02:53.421Z,27.27
2022-12-20T20:05:37.412Z,23.73
2022-12-20T20:08:13.038Z,28.83
2022-12-20T20:10:56.668Z,22.83
2022-12-20T20:13:33.406Z,24.30
2022-12-20T20:16:04.199Z,23.10
2022-12-20T20:18:36.565Z,26.00
2022-12-20T20:21:11.246Z,24.67
2022-12-20T20:23:49.525Z,26.53
2022-12-20T20:26:20.981Z,28.63
2022-12-20T20:28:55.515Z,25.67
2022-12-20T20:31:24.728Z,28.17
2022-12-20T20:33:53.489Z,26.43
2022-12-20T20:36:24.783Z,26.70
2022-12-20T20:38:56.962Z,26.73
2022-12-20T20:41:29.887Z,26.00
2022-12-20T20:43:58.743Z,29.13
2022-12-20T20:46:28.538Z,29.20
2022-12-20T20:49:00.018Z,24.30
2022-12-20T20:51:39.111Z,20.90
2022-12-20T20:54:10.991Z,28.17
2022-12-20T20:56:40.717Z,23.40
2022-12-20T20:59:17.016Z,23.23
2022-12-20T21:01:46.684Z,24.23
2022-12-20T21:04:15.105Z,23.20
2022-12-20T21:06:44.092Z,24.43
2022-12-20T21:11:57.967Z,25.50
2022-12-20T21:15:10.647Z,19.10
2022-12-20T21:19:56.671Z,18.23
2022-12-20T21:22:26.578Z,23.87
2022-12-20T21:24:57.742Z,24.57
2022-12-20T21:27:29.166Z,16.60
2022-12-20T21:30:06.635Z,17.23
2022-12-20T21:32:38.972Z,20.30
2022-12-20T21:35:09.095Z,22.47
2022-12-20T21:37:54.176Z,19.27
2022-12-20T21:43:20.403Z,18.30
2022-12-20T21:45:53.079Z,20.23
2022-12-20T21:51:25.084Z,22.03
2022-12-20T21:53:59.689Z,22.47
2022-12-20T21:59:19.992Z,21.97
2022-12-20T22:02:02.885Z,23.03
2022-12-20T22:18:25.906Z,22.80
2022-12-20T22:21:14.711Z,24.93
2022-12-20T22:23:46.132Z,37.27
2022-12-20T22:26:17.763Z,22.57
2022-12-20T22:31:55.190Z,20.37
2022-12-20T22:37:17.410Z,22.80
2022-12-20T22:39:54.798Z,21.00
2022-12-20T22:42:45.685Z,22.87
2022-12-20T22:45:23.772Z,21.80
2022-12-20T22:48:06.630Z,25.40
2022-12-20T22:50:46.849Z,27.87
2022-12-20T22:53:19.936Z,26.33
2022-12-20T22:55:56.829Z,23.33
2022-12-20T22:58:28.064Z,24.73
2022-12-20T23:01:00.746Z,57.77
2022-12-20T23:03:33.755Z,24.23
2022-12-20T23:06:12.045Z,28.90
2022-12-20T23:08:56.531Z,19.43
2022-12-20T23:11:44.883Z,21.90
2022-12-20T23:14:36.312Z,21.67
2022-12-20T23:17:06.462Z,21.80
2022-12-20T23:19:57.268Z,21.20
2022-12-20T23:22:40.623Z,20.00
2022-12-20T23:25:14.181Z,20.03
2022-12-20T23:27:47.131Z,20.03
2022-12-20T23:33:03.196Z,28.87
2022-12-20T23:35:35.214Z,23.23
2022-12-20T23:38:05.853Z,22.57
2022-12-20T23:40:34.443Z,21.27
2022-12-20T23:43:03.133Z,25.63
2022-12-20T23:45:32.269Z,21.20
2022-12-20T23:48:00.587Z,23.60
2022-12-20T23:50:29.448Z,21.03
2022-12-20T23:52:59.458Z,23.00
2022-12-20T23:55:31.892Z,23.77
2022-12-20T23:58:00.377Z,20.47
